Lawton Fort Sill Regional Airport
KLAW : rendu visible

Aérodrome :











RETROUVEZ-NOUS SUR...

 
LOGIN :

S'inscrire | Disclaimer

   EN    FR    IT 

 









Légende :    VFR   VFR Marginal   IFR   IFR Intensif   IFR Très Intensif
Visi : 
Plafond : 
>= 8 km
>= 3000ft
5 à 8 km
1000 à 3000 ft
1500m à 5 km
500 à 1000 ft
800 à 1500m
200 à 500 ft
< 800m
< 200 ft
Symboles :   Orages  Brouillard  Fortes neiges  Fortes précipitations  Vent > 20 kt






- Altitude de l'aérodrome : 1110 ft


KLAW - Lawton Fort Sill Regional

DERNIER METAR :
  • 311853Z 12010KT 10SM CLR 29/13 A3015 RMK AO2 SLP200 T02890128

METARs EXPIRÉS :
  • 311753Z 13008KT 10SM CLR 28/13 A3017 RMK AO2 SLP207 60000 T02830133 10283 20150 58012
  • 311653Z 16004KT 10SM CLR 27/13 A3018 RMK AO2 SLP210 T02720133

TAF KLAW
Valide du 31 à 18h jusqu'au 01 à 18h UTC


311720Z 3118/0118 15012G17KT P6SM FEW250
FM010000 13009KT P6SM FEW250
FIR KZFW / Amérique du Nord



MET'MAP, la Météo Aéronautique d'un coup d'oeil ! - Copyright ORBIFLY Décembre 2007 - Disclaimer

ORBIFLY MET'MAP TEAM :

Programmation & Développement : Alexandra Zaïnal
Sur une idée originale de : Baudouin d'Aumeries
Assistance à la programmation : Marc-Olivier Méhu
Soutien technique & logistique : Manuel Goepfert

Contact : metmap@orbifly.com




SOURCES & CREDITS :

   NOAA       Earth
Advisory